sensor_id;sensor_type;location;lat;lon;timestamp;P1;durP1;ratioP1;P2;durP2;ratioP2
68140;SDS011;54941;52.220;104.306;2022-08-01T00:01:50;10.98;;;7.78;;
68140;SDS011;54941;52.220;104.306;2022-08-01T00:04:17;8.63;;;7.10;;
68140;SDS011;54941;52.220;104.306;2022-08-01T00:06:43;9.13;;;7.65;;
68140;SDS011;54941;52.220;104.306;2022-08-01T00:09:09;9.02;;;7.68;;
68140;SDS011;54941;52.220;104.306;2022-08-01T00:11:35;8.20;;;7.30;;
68140;SDS011;54941;52.220;104.306;2022-08-01T00:14:01;10.30;;;7.43;;
68140;SDS011;54941;52.220;104.306;2022-08-01T00:16:28;8.88;;;7.63;;
68140;SDS011;54941;52.220;104.306;2022-08-01T00:18:54;10.70;;;7.88;;
68140;SDS011;54941;52.220;104.306;2022-08-01T00:21:21;8.90;;;7.72;;
68140;SDS011;54941;52.220;104.306;2022-08-01T00:23:47;9.27;;;7.63;;
68140;SDS011;54941;52.220;104.306;2022-08-01T00:26:13;9.25;;;7.15;;
68140;SDS011;54941;52.220;104.306;2022-08-01T00:28:40;8.60;;;7.10;;
68140;SDS011;54941;52.220;104.306;2022-08-01T00:31:07;9.07;;;7.68;;
68140;SDS011;54941;52.220;104.306;2022-08-01T00:33:33;9.05;;;7.72;;
68140;SDS011;54941;52.220;104.306;2022-08-01T00:35:59;10.38;;;7.45;;
68140;SDS011;54941;52.220;104.306;2022-08-01T00:38:25;9.52;;;7.20;;
68140;SDS011;54941;52.220;104.306;2022-08-01T00:40:51;10.35;;;7.22;;
68140;SDS011;54941;52.220;104.306;2022-08-01T00:43:18;13.38;;;7.75;;
68140;SDS011;54941;52.220;104.306;2022-08-01T00:45:44;11.50;;;7.22;;
68140;SDS011;54941;52.220;104.306;2022-08-01T00:48:10;9.52;;;6.75;;
68140;SDS011;54941;52.220;104.306;2022-08-01T00:50:36;8.60;;;7.10;;
68140;SDS011;54941;52.220;104.306;2022-08-01T00:53:03;9.60;;;7.25;;
68140;SDS011;54941;52.220;104.306;2022-08-01T00:55:30;10.88;;;8.40;;
68140;SDS011;54941;52.220;104.306;2022-08-01T00:57:57;11.32;;;7.43;;
68140;SDS011;54941;52.220;104.306;2022-08-01T01:00:24;9.60;;;7.75;;
68140;SDS011;54941;52.220;104.306;2022-08-01T01:02:51;9.52;;;7.07;;
68140;SDS011;54941;52.220;104.306;2022-08-01T01:05:17;9.38;;;7.72;;
68140;SDS011;54941;52.220;104.306;2022-08-01T01:07:45;8.30;;;7.43;;
68140;SDS011;54941;52.220;104.306;2022-08-01T01:10:46;8.63;;;7.72;;
68140;SDS011;54941;52.220;104.306;2022-08-01T01:15:53;9.40;;;7.15;;
68140;SDS011;54941;52.220;104.306;2022-08-01T01:18:24;9.75;;;7.60;;
68140;SDS011;54941;52.220;104.306;2022-08-01T01:26:43;10.73;;;7.28;;
68140;SDS011;54941;52.220;104.306;2022-08-01T01:29:19;9.20;;;7.38;;
68140;SDS011;54941;52.220;104.306;2022-08-01T01:31:55;8.73;;;7.25;;
68140;SDS011;54941;52.220;104.306;2022-08-01T01:34:28;8.73;;;6.90;;
68140;SDS011;54941;52.220;104.306;2022-08-01T01:36:57;8.15;;;6.97;;
68140;SDS011;54941;52.220;104.306;2022-08-01T01:41:52;8.32;;;6.88;;
68140;SDS011;54941;52.220;104.306;2022-08-01T01:44:20;8.77;;;6.97;;
68140;SDS011;54941;52.220;104.306;2022-08-01T01:46:47;8.30;;;7.50;;
68140;SDS011;54941;52.220;104.306;2022-08-01T01:49:15;7.65;;;6.68;;
68140;SDS011;54941;52.220;104.306;2022-08-01T01:51:45;7.80;;;6.95;;
68140;SDS011;54941;52.220;104.306;2022-08-01T01:54:14;7.82;;;6.80;;
68140;SDS011;54941;52.220;104.306;2022-08-01T01:56:40;7.15;;;6.45;;
68140;SDS011;54941;52.220;104.306;2022-08-01T01:59:07;11.52;;;7.22;;
68140;SDS011;54941;52.220;104.306;2022-08-01T02:01:33;8.23;;;7.30;;
68140;SDS011;54941;52.220;104.306;2022-08-01T02:04:01;7.78;;;6.95;;
68140;SDS011;54941;52.220;104.306;2022-08-01T02:06:28;8.48;;;7.20;;
68140;SDS011;54941;52.220;104.306;2022-08-01T02:08:57;9.00;;;7.20;;
68140;SDS011;54941;52.220;104.306;2022-08-01T02:11:25;7.60;;;6.55;;
68140;SDS011;54941;52.220;104.306;2022-08-01T02:14:01;8.43;;;7.40;;
68140;SDS011;54941;52.220;104.306;2022-08-01T02:16:31;7.93;;;6.78;;
68140;SDS011;54941;52.220;104.306;2022-08-01T02:19:00;8.27;;;7.28;;
68140;SDS011;54941;52.220;104.306;2022-08-01T02:21:32;7.80;;;7.00;;
68140;SDS011;54941;52.220;104.306;2022-08-01T02:24:13;8.43;;;6.88;;
68140;SDS011;54941;52.220;104.306;2022-08-01T02:26:44;7.88;;;6.95;;
68140;SDS011;54941;52.220;104.306;2022-08-01T02:29:17;8.45;;;7.00;;
68140;SDS011;54941;52.220;104.306;2022-08-01T02:31:48;7.80;;;7.00;;
68140;SDS011;54941;52.220;104.306;2022-08-01T02:34:17;7.55;;;6.38;;
68140;SDS011;54941;52.220;104.306;2022-08-01T02:39:14;7.30;;;6.60;;
68140;SDS011;54941;52.220;104.306;2022-08-01T02:41:45;7.45;;;6.65;;
68140;SDS011;54941;52.220;104.306;2022-08-01T02:44:18;7.50;;;6.45;;
68140;SDS011;54941;52.220;104.306;2022-08-01T02:46:50;10.10;;;6.47;;
68140;SDS011;54941;52.220;104.306;2022-08-01T02:49:19;9.38;;;7.07;;
68140;SDS011;54941;52.220;104.306;2022-08-01T02:51:47;7.75;;;6.78;;
68140;SDS011;54941;52.220;104.306;2022-08-01T02:54:15;7.68;;;6.88;;
68140;SDS011;54941;52.220;104.306;2022-08-01T02:56:43;8.88;;;7.15;;
68140;SDS011;54941;52.220;104.306;2022-08-01T02:59:13;8.00;;;6.60;;
68140;SDS011;54941;52.220;104.306;2022-08-01T03:01:44;8.00;;;7.20;;
68140;SDS011;54941;52.220;104.306;2022-08-01T03:04:11;9.30;;;6.93;;
68140;SDS011;54941;52.220;104.306;2022-08-01T03:06:38;8.55;;;7.65;;
68140;SDS011;54941;52.220;104.306;2022-08-01T03:09:04;7.68;;;6.88;;
68140;SDS011;54941;52.220;104.306;2022-08-01T03:11:32;8.40;;;7.07;;
68140;SDS011;54941;52.220;104.306;2022-08-01T03:14:03;9.27;;;7.30;;
68140;SDS011;54941;52.220;104.306;2022-08-01T03:16:33;7.90;;;7.10;;
68140;SDS011;54941;52.220;104.306;2022-08-01T03:19:03;8.90;;;6.95;;
68140;SDS011;54941;52.220;104.306;2022-08-01T03:21:30;9.07;;;7.00;;
68140;SDS011;54941;52.220;104.306;2022-08-01T03:23:58;8.95;;;6.82;;
68140;SDS011;54941;52.220;104.306;2022-08-01T03:26:30;9.38;;;6.65;;
68140;SDS011;54941;52.220;104.306;2022-08-01T03:29:01;11.32;;;7.50;;
68140;SDS011;54941;52.220;104.306;2022-08-01T03:31:30;8.15;;;7.13;;
68140;SDS011;54941;52.220;104.306;2022-08-01T03:33:59;8.43;;;7.53;;
68140;SDS011;54941;52.220;104.306;2022-08-01T03:36:26;9.13;;;7.32;;
68140;SDS011;54941;52.220;104.306;2022-08-01T03:38:55;9.82;;;7.53;;
68140;SDS011;54941;52.220;104.306;2022-08-01T03:41:26;10.35;;;8.18;;
68140;SDS011;54941;52.220;104.306;2022-08-01T03:43:56;8.50;;;7.28;;
68140;SDS011;54941;52.220;104.306;2022-08-01T03:46:28;9.40;;;8.10;;
68140;SDS011;54941;52.220;104.306;2022-08-01T03:49:03;8.60;;;7.70;;
68140;SDS011;54941;52.220;104.306;2022-08-01T03:51:36;8.70;;;7.75;;
68140;SDS011;54941;52.220;104.306;2022-08-01T03:54:04;9.77;;;8.20;;
68140;SDS011;54941;52.220;104.306;2022-08-01T03:56:32;8.65;;;7.75;;
68140;SDS011;54941;52.220;104.306;2022-08-01T03:59:00;8.13;;;7.32;;
68140;SDS011;54941;52.220;104.306;2022-08-01T04:01:27;9.60;;;7.78;;
68140;SDS011;54941;52.220;104.306;2022-08-01T04:03:57;9.90;;;7.95;;
68140;SDS011;54941;52.220;104.306;2022-08-01T04:06:28;9.95;;;8.52;;
68140;SDS011;54941;52.220;104.306;2022-08-01T04:08:55;10.68;;;8.25;;
68140;SDS011;54941;52.220;104.306;2022-08-01T04:11:24;9.85;;;7.72;;
68140;SDS011;54941;52.220;104.306;2022-08-01T04:13:52;9.32;;;8.10;;
68140;SDS011;54941;52.220;104.306;2022-08-01T04:16:19;9.85;;;7.40;;
68140;SDS011;54941;52.220;104.306;2022-08-01T04:18:45;8.35;;;7.45;;
68140;SDS011;54941;52.220;104.306;2022-08-01T04:21:12;9.65;;;8.02;;
68140;SDS011;54941;52.220;104.306;2022-08-01T04:23:39;9.20;;;7.75;;
68140;SDS011;54941;52.220;104.306;2022-08-01T04:26:09;8.73;;;7.75;;
68140;SDS011;54941;52.220;104.306;2022-08-01T04:28:37;8.68;;;7.60;;
68140;SDS011;54941;52.220;104.306;2022-08-01T04:31:06;8.98;;;7.60;;
68140;SDS011;54941;52.220;104.306;2022-08-01T04:33:34;8.77;;;7.47;;
68140;SDS011;54941;52.220;104.306;2022-08-01T04:36:01;9.88;;;7.25;;
68140;SDS011;54941;52.220;104.306;2022-08-01T04:40:56;7.82;;;6.70;;
68140;SDS011;54941;52.220;104.306;2022-08-01T04:43:23;8.75;;;6.95;;
68140;SDS011;54941;52.220;104.306;2022-08-01T04:45:49;7.88;;;6.90;;
68140;SDS011;54941;52.220;104.306;2022-08-01T04:48:17;8.75;;;7.20;;
68140;SDS011;54941;52.220;104.306;2022-08-01T04:50:45;9.05;;;7.00;;
68140;SDS011;54941;52.220;104.306;2022-08-01T04:53:12;7.65;;;6.60;;
68140;SDS011;54941;52.220;104.306;2022-08-01T04:55:45;7.35;;;6.15;;
68140;SDS011;54941;52.220;104.306;2022-08-01T04:58:12;7.40;;;6.00;;
68140;SDS011;54941;52.220;104.306;2022-08-01T05:00:39;7.65;;;6.10;;
68140;SDS011;54941;52.220;104.306;2022-08-01T05:03:06;8.85;;;6.63;;
68140;SDS011;54941;52.220;104.306;2022-08-01T05:05:32;7.53;;;6.45;;
68140;SDS011;54941;52.220;104.306;2022-08-01T05:07:58;7.38;;;5.78;;
68140;SDS011;54941;52.220;104.306;2022-08-01T05:10:24;6.88;;;5.35;;
68140;SDS011;54941;52.220;104.306;2022-08-01T05:12:51;6.25;;;4.70;;
68140;SDS011;54941;52.220;104.306;2022-08-01T05:15:17;5.68;;;5.00;;
68140;SDS011;54941;52.220;104.306;2022-08-01T05:17:43;6.70;;;5.47;;
68140;SDS011;54941;52.220;104.306;2022-08-01T05:20:10;8.10;;;7.13;;
68140;SDS011;54941;52.220;104.306;2022-08-01T05:22:37;8.43;;;7.22;;
68140;SDS011;54941;52.220;104.306;2022-08-01T05:25:03;9.57;;;7.13;;
68140;SDS011;54941;52.220;104.306;2022-08-01T05:27:31;8.48;;;7.00;;
68140;SDS011;54941;52.220;104.306;2022-08-01T05:29:57;8.98;;;6.45;;
68140;SDS011;54941;52.220;104.306;2022-08-01T05:32:23;9.20;;;6.95;;
68140;SDS011;54941;52.220;104.306;2022-08-01T05:34:49;7.70;;;6.43;;
68140;SDS011;54941;52.220;104.306;2022-08-01T05:37:15;8.43;;;6.70;;
68140;SDS011;54941;52.220;104.306;2022-08-01T05:39:41;8.50;;;6.18;;
68140;SDS011;54941;52.220;104.306;2022-08-01T05:42:07;7.75;;;6.78;;
68140;SDS011;54941;52.220;104.306;2022-08-01T05:44:33;8.30;;;6.93;;
68140;SDS011;54941;52.220;104.306;2022-08-01T05:47:00;7.75;;;6.28;;
68140;SDS011;54941;52.220;104.306;2022-08-01T05:49:26;8.88;;;7.22;;
68140;SDS011;54941;52.220;104.306;2022-08-01T05:51:52;9.18;;;6.28;;
68140;SDS011;54941;52.220;104.306;2022-08-01T05:54:18;7.85;;;6.90;;
68140;SDS011;54941;52.220;104.306;2022-08-01T05:56:44;8.02;;;7.07;;
68140;SDS011;54941;52.220;104.306;2022-08-01T05:59:10;8.13;;;7.05;;
68140;SDS011;54941;52.220;104.306;2022-08-01T06:01:36;8.82;;;6.93;;
68140;SDS011;54941;52.220;104.306;2022-08-01T06:04:02;8.73;;;7.22;;
68140;SDS011;54941;52.220;104.306;2022-08-01T06:06:31;9.52;;;7.53;;
68140;SDS011;54941;52.220;104.306;2022-08-01T06:08:57;10.15;;;7.38;;
68140;SDS011;54941;52.220;104.306;2022-08-01T06:11:24;10.02;;;7.28;;
68140;SDS011;54941;52.220;104.306;2022-08-01T06:13:50;9.25;;;7.40;;
68140;SDS011;54941;52.220;104.306;2022-08-01T06:16:16;9.70;;;7.53;;
68140;SDS011;54941;52.220;104.306;2022-08-01T06:18:42;9.98;;;8.20;;
68140;SDS011;54941;52.220;104.306;2022-08-01T06:21:11;10.75;;;7.68;;
68140;SDS011;54941;52.220;104.306;2022-08-01T06:26:03;8.95;;;7.45;;
68140;SDS011;54941;52.220;104.306;2022-08-01T06:28:29;8.70;;;7.20;;
68140;SDS011;54941;52.220;104.306;2022-08-01T06:30:55;8.75;;;7.60;;
68140;SDS011;54941;52.220;104.306;2022-08-01T06:33:21;10.13;;;7.72;;
68140;SDS011;54941;52.220;104.306;2022-08-01T06:35:47;9.80;;;7.90;;
68140;SDS011;54941;52.220;104.306;2022-08-01T06:38:13;9.13;;;7.25;;
68140;SDS011;54941;52.220;104.306;2022-08-01T06:40:39;9.48;;;8.23;;
68140;SDS011;54941;52.220;104.306;2022-08-01T06:43:06;8.35;;;7.03;;
68140;SDS011;54941;52.220;104.306;2022-08-01T06:45:32;9.88;;;7.25;;
68140;SDS011;54941;52.220;104.306;2022-08-01T06:47:58;9.88;;;8.35;;
68140;SDS011;54941;52.220;104.306;2022-08-01T06:50:24;10.25;;;7.80;;
68140;SDS011;54941;52.220;104.306;2022-08-01T06:52:50;9.80;;;8.80;;
68140;SDS011;54941;52.220;104.306;2022-08-01T06:55:16;10.40;;;8.00;;
68140;SDS011;54941;52.220;104.306;2022-08-01T06:57:50;9.13;;;7.47;;
68140;SDS011;54941;52.220;104.306;2022-08-01T07:00:18;9.35;;;7.20;;
68140;SDS011;54941;52.220;104.306;2022-08-01T07:02:52;9.45;;;8.45;;
68140;SDS011;54941;52.220;104.306;2022-08-01T07:05:20;10.13;;;7.75;;
68140;SDS011;54941;52.220;104.306;2022-08-01T07:07:46;9.30;;;8.18;;
68140;SDS011;54941;52.220;104.306;2022-08-01T07:10:13;9.90;;;8.43;;
68140;SDS011;54941;52.220;104.306;2022-08-01T07:12:39;9.82;;;7.55;;
68140;SDS011;54941;52.220;104.306;2022-08-01T07:15:06;8.35;;;7.15;;
68140;SDS011;54941;52.220;104.306;2022-08-01T07:17:40;9.07;;;7.00;;
68140;SDS011;54941;52.220;104.306;2022-08-01T07:20:08;8.95;;;6.60;;
68140;SDS011;54941;52.220;104.306;2022-08-01T07:25:02;9.00;;;7.28;;
68140;SDS011;54941;52.220;104.306;2022-08-01T07:27:30;9.15;;;6.90;;
68140;SDS011;54941;52.220;104.306;2022-08-01T07:29:56;8.93;;;7.63;;
68140;SDS011;54941;52.220;104.306;2022-08-01T07:32:22;9.40;;;7.82;;
68140;SDS011;54941;52.220;104.306;2022-08-01T07:34:49;10.10;;;7.57;;
68140;SDS011;54941;52.220;104.306;2022-08-01T07:37:15;9.60;;;6.93;;
68140;SDS011;54941;52.220;104.306;2022-08-01T07:39:41;8.68;;;7.30;;
68140;SDS011;54941;52.220;104.306;2022-08-01T07:42:07;10.40;;;7.68;;
68140;SDS011;54941;52.220;104.306;2022-08-01T07:44:33;9.13;;;7.35;;
68140;SDS011;54941;52.220;104.306;2022-08-01T07:47:00;9.70;;;7.47;;
68140;SDS011;54941;52.220;104.306;2022-08-01T07:49:26;8.95;;;7.22;;
68140;SDS011;54941;52.220;104.306;2022-08-01T07:51:56;9.45;;;7.43;;
68140;SDS011;54941;52.220;104.306;2022-08-01T07:54:22;9.68;;;7.40;;
68140;SDS011;54941;52.220;104.306;2022-08-01T07:56:48;10.25;;;7.90;;
68140;SDS011;54941;52.220;104.306;2022-08-01T07:59:14;9.25;;;6.93;;
68140;SDS011;54941;52.220;104.306;2022-08-01T08:01:40;9.25;;;6.93;;
68140;SDS011;54941;52.220;104.306;2022-08-01T08:04:06;7.07;;;6.15;;
68140;SDS011;54941;52.220;104.306;2022-08-01T08:06:33;9.10;;;7.00;;
68140;SDS011;54941;52.220;104.306;2022-08-01T08:08:59;8.73;;;7.20;;
68140;SDS011;54941;52.220;104.306;2022-08-01T08:11:25;8.23;;;6.30;;
68140;SDS011;54941;52.220;104.306;2022-08-01T08:13:52;8.48;;;6.80;;
68140;SDS011;54941;52.220;104.306;2022-08-01T08:16:18;8.45;;;6.65;;
68140;SDS011;54941;52.220;104.306;2022-08-01T08:18:44;6.60;;;5.70;;
68140;SDS011;54941;52.220;104.306;2022-08-01T08:21:10;6.20;;;5.03;;
68140;SDS011;54941;52.220;104.306;2022-08-01T08:23:36;6.50;;;5.03;;
68140;SDS011;54941;52.220;104.306;2022-08-01T08:26:02;6.13;;;5.30;;
68140;SDS011;54941;52.220;104.306;2022-08-01T08:28:28;7.90;;;6.68;;
68140;SDS011;54941;52.220;104.306;2022-08-01T08:30:54;7.68;;;6.25;;
68140;SDS011;54941;52.220;104.306;2022-08-01T08:33:20;7.07;;;5.78;;
68140;SDS011;54941;52.220;104.306;2022-08-01T08:35:46;7.35;;;6.15;;
68140;SDS011;54941;52.220;104.306;2022-08-01T08:38:13;7.88;;;5.72;;
68140;SDS011;54941;52.220;104.306;2022-08-01T08:40:39;8.00;;;5.97;;
68140;SDS011;54941;52.220;104.306;2022-08-01T08:43:07;8.88;;;6.68;;
68140;SDS011;54941;52.220;104.306;2022-08-01T08:45:34;7.05;;;5.82;;
68140;SDS011;54941;52.220;104.306;2022-08-01T08:48:00;8.23;;;6.05;;
68140;SDS011;54941;52.220;104.306;2022-08-01T08:50:27;8.27;;;6.43;;
68140;SDS011;54941;52.220;104.306;2022-08-01T08:52:54;8.52;;;6.53;;
68140;SDS011;54941;52.220;104.306;2022-08-01T08:55:21;8.57;;;6.18;;
68140;SDS011;54941;52.220;104.306;2022-08-01T08:57:51;8.88;;;6.70;;
68140;SDS011;54941;52.220;104.306;2022-08-01T09:00:18;8.25;;;6.57;;
68140;SDS011;54941;52.220;104.306;2022-08-01T09:02:45;8.95;;;6.85;;
68140;SDS011;54941;52.220;104.306;2022-08-01T09:05:13;9.50;;;6.80;;
68140;SDS011;54941;52.220;104.306;2022-08-01T09:07:39;7.93;;;6.72;;
68140;SDS011;54941;52.220;104.306;2022-08-01T09:10:05;8.52;;;6.38;;
68140;SDS011;54941;52.220;104.306;2022-08-01T09:12:32;7.65;;;6.13;;
68140;SDS011;54941;52.220;104.306;2022-08-01T09:14:58;8.40;;;7.20;;
68140;SDS011;54941;52.220;104.306;2022-08-01T09:17:25;8.82;;;6.85;;
68140;SDS011;54941;52.220;104.306;2022-08-01T09:19:52;10.50;;;7.30;;
68140;SDS011;54941;52.220;104.306;2022-08-01T09:22:21;8.50;;;7.10;;
68140;SDS011;54941;52.220;104.306;2022-08-01T09:24:59;8.77;;;6.68;;
68140;SDS011;54941;52.220;104.306;2022-08-01T09:27:30;9.40;;;7.70;;
68140;SDS011;54941;52.220;104.306;2022-08-01T09:30:07;8.85;;;7.10;;
68140;SDS011;54941;52.220;104.306;2022-08-01T09:32:35;8.95;;;7.53;;
68140;SDS011;54941;52.220;104.306;2022-08-01T09:37:48;9.77;;;7.53;;
68140;SDS011;54941;52.220;104.306;2022-08-01T09:40:14;12.45;;;8.20;;
68140;SDS011;54941;52.220;104.306;2022-08-01T09:42:41;8.55;;;7.18;;
68140;SDS011;54941;52.220;104.306;2022-08-01T09:45:07;10.00;;;8.05;;
68140;SDS011;54941;52.220;104.306;2022-08-01T09:47:37;10.18;;;7.47;;
68140;SDS011;54941;52.220;104.306;2022-08-01T09:50:04;10.02;;;7.93;;
68140;SDS011;54941;52.220;104.306;2022-08-01T09:52:31;9.57;;;7.35;;
68140;SDS011;54941;52.220;104.306;2022-08-01T09:57:29;11.00;;;7.68;;
68140;SDS011;54941;52.220;104.306;2022-08-01T09:59:56;11.02;;;7.38;;
68140;SDS011;54941;52.220;104.306;2022-08-01T10:04:54;10.38;;;8.27;;
68140;SDS011;54941;52.220;104.306;2022-08-01T10:07:21;10.57;;;7.57;;
68140;SDS011;54941;52.220;104.306;2022-08-01T10:09:47;11.70;;;8.35;;
68140;SDS011;54941;52.220;104.306;2022-08-01T10:12:15;10.52;;;8.73;;
68140;SDS011;54941;52.220;104.306;2022-08-01T10:14:44;10.52;;;7.68;;
68140;SDS011;54941;52.220;104.306;2022-08-01T10:17:14;10.52;;;7.80;;
68140;SDS011;54941;52.220;104.306;2022-08-01T10:19:42;10.32;;;7.78;;
68140;SDS011;54941;52.220;104.306;2022-08-01T10:22:10;11.98;;;8.13;;
68140;SDS011;54941;52.220;104.306;2022-08-01T10:24:38;10.77;;;7.95;;
68140;SDS011;54941;52.220;104.306;2022-08-01T10:27:08;10.55;;;8.75;;
68140;SDS011;54941;52.220;104.306;2022-08-01T10:29:41;10.88;;;7.80;;
68140;SDS011;54941;52.220;104.306;2022-08-01T10:32:11;9.23;;;7.68;;
68140;SDS011;54941;52.220;104.306;2022-08-01T10:34:38;10.52;;;8.50;;
68140;SDS011;54941;52.220;104.306;2022-08-01T10:37:04;11.50;;;8.57;;
68140;SDS011;54941;52.220;104.306;2022-08-01T10:39:31;11.60;;;8.05;;
68140;SDS011;54941;52.220;104.306;2022-08-01T10:41:58;11.90;;;7.85;;
68140;SDS011;54941;52.220;104.306;2022-08-01T10:44:27;13.45;;;8.85;;
68140;SDS011;54941;52.220;104.306;2022-08-01T10:46:57;11.50;;;7.75;;
68140;SDS011;54941;52.220;104.306;2022-08-01T10:49:30;11.55;;;7.38;;
68140;SDS011;54941;52.220;104.306;2022-08-01T10:52:00;10.23;;;7.60;;
68140;SDS011;54941;52.220;104.306;2022-08-01T10:54:26;11.75;;;7.55;;
68140;SDS011;54941;52.220;104.306;2022-08-01T10:56:53;12.45;;;7.95;;
68140;SDS011;54941;52.220;104.306;2022-08-01T10:59:23;10.05;;;7.93;;
68140;SDS011;54941;52.220;104.306;2022-08-01T11:01:57;9.70;;;7.40;;
68140;SDS011;54941;52.220;104.306;2022-08-01T11:07:06;11.23;;;7.47;;
68140;SDS011;54941;52.220;104.306;2022-08-01T11:09:38;12.15;;;7.82;;
68140;SDS011;54941;52.220;104.306;2022-08-01T11:12:07;16.40;;;8.25;;
68140;SDS011;54941;52.220;104.306;2022-08-01T11:15:22;11.63;;;7.85;;
68140;SDS011;54941;52.220;104.306;2022-08-01T11:17:34;12.73;;;7.60;;
68140;SDS011;54941;52.220;104.306;2022-08-01T11:20:08;12.85;;;8.65;;
68140;SDS011;54941;52.220;104.306;2022-08-01T11:25:24;15.35;;;7.93;;
68140;SDS011;54941;52.220;104.306;2022-08-01T11:33:10;13.38;;;8.07;;
68140;SDS011;54941;52.220;104.306;2022-08-01T11:35:37;12.65;;;8.73;;
68140;SDS011;54941;52.220;104.306;2022-08-01T11:38:27;17.67;;;12.35;;
68140;SDS011;54941;52.220;104.306;2022-08-01T11:43:57;19.58;;;12.82;;
68140;SDS011;54941;52.220;104.306;2022-08-01T11:52:46;14.38;;;9.50;;
68140;SDS011;54941;52.220;104.306;2022-08-01T11:57:30;15.50;;;8.65;;
68140;SDS011;54941;52.220;104.306;2022-08-01T11:59:58;12.38;;;8.38;;
68140;SDS011;54941;52.220;104.306;2022-08-01T12:02:25;12.02;;;8.02;;
68140;SDS011;54941;52.220;104.306;2022-08-01T12:07:21;10.50;;;7.75;;
68140;SDS011;54941;52.220;104.306;2022-08-01T12:09:56;15.50;;;9.80;;
68140;SDS011;54941;52.220;104.306;2022-08-01T12:12:33;13.30;;;10.02;;
68140;SDS011;54941;52.220;104.306;2022-08-01T12:15:01;14.63;;;9.00;;
68140;SDS011;54941;52.220;104.306;2022-08-01T12:17:33;13.30;;;9.82;;
68140;SDS011;54941;52.220;104.306;2022-08-01T12:20:02;14.98;;;9.27;;
68140;SDS011;54941;52.220;104.306;2022-08-01T12:22:31;13.32;;;9.52;;
68140;SDS011;54941;52.220;104.306;2022-08-01T12:25:04;14.82;;;10.63;;
68140;SDS011;54941;52.220;104.306;2022-08-01T12:27:35;15.43;;;9.65;;
68140;SDS011;54941;52.220;104.306;2022-08-01T12:30:06;14.93;;;9.77;;
68140;SDS011;54941;52.220;104.306;2022-08-01T12:32:37;14.57;;;9.55;;
68140;SDS011;54941;52.220;104.306;2022-08-01T12:35:06;14.38;;;8.63;;
68140;SDS011;54941;52.220;104.306;2022-08-01T12:37:36;14.95;;;9.18;;
68140;SDS011;54941;52.220;104.306;2022-08-01T12:42:46;11.30;;;7.68;;
68140;SDS011;54941;52.220;104.306;2022-08-01T12:45:17;13.13;;;7.38;;
68140;SDS011;54941;52.220;104.306;2022-08-01T12:47:45;10.80;;;7.38;;
68140;SDS011;54941;52.220;104.306;2022-08-01T12:50:14;12.70;;;7.28;;
68140;SDS011;54941;52.220;104.306;2022-08-01T12:52:42;10.27;;;6.53;;
68140;SDS011;54941;52.220;104.306;2022-08-01T12:55:09;9.80;;;6.93;;
68140;SDS011;54941;52.220;104.306;2022-08-01T12:57:40;11.10;;;7.75;;
68140;SDS011;54941;52.220;104.306;2022-08-01T13:00:09;12.55;;;6.85;;
68140;SDS011;54941;52.220;104.306;2022-08-01T13:02:38;11.70;;;8.93;;
68140;SDS011;54941;52.220;104.306;2022-08-01T13:05:05;11.07;;;8.15;;
68140;SDS011;54941;52.220;104.306;2022-08-01T13:07:35;10.90;;;7.93;;
68140;SDS011;54941;52.220;104.306;2022-08-01T13:10:07;11.18;;;7.53;;
68140;SDS011;54941;52.220;104.306;2022-08-01T13:12:33;13.35;;;8.23;;
68140;SDS011;54941;52.220;104.306;2022-08-01T13:15:20;14.32;;;7.93;;
68140;SDS011;54941;52.220;104.306;2022-08-01T13:17:52;13.95;;;8.88;;
68140;SDS011;54941;52.220;104.306;2022-08-01T13:20:22;16.75;;;10.73;;
68140;SDS011;54941;52.220;104.306;2022-08-01T13:22:48;14.68;;;9.25;;
68140;SDS011;54941;52.220;104.306;2022-08-01T13:25:15;14.75;;;10.57;;
68140;SDS011;54941;52.220;104.306;2022-08-01T13:27:42;13.73;;;8.70;;
68140;SDS011;54941;52.220;104.306;2022-08-01T13:30:12;15.60;;;9.18;;
68140;SDS011;54941;52.220;104.306;2022-08-01T13:32:40;14.65;;;8.57;;
68140;SDS011;54941;52.220;104.306;2022-08-01T13:35:07;14.38;;;8.95;;
68140;SDS011;54941;52.220;104.306;2022-08-01T13:37:35;14.95;;;8.55;;
68140;SDS011;54941;52.220;104.306;2022-08-01T13:40:08;13.88;;;8.68;;
68140;SDS011;54941;52.220;104.306;2022-08-01T13:42:36;16.23;;;9.13;;
68140;SDS011;54941;52.220;104.306;2022-08-01T13:45:03;17.58;;;8.60;;
68140;SDS011;54941;52.220;104.306;2022-08-01T13:47:31;14.10;;;8.15;;
68140;SDS011;54941;52.220;104.306;2022-08-01T13:49:57;13.25;;;8.68;;
68140;SDS011;54941;52.220;104.306;2022-08-01T13:52:26;16.80;;;8.50;;
68140;SDS011;54941;52.220;104.306;2022-08-01T13:54:52;12.45;;;9.20;;
68140;SDS011;54941;52.220;104.306;2022-08-01T13:57:18;13.02;;;8.30;;
68140;SDS011;54941;52.220;104.306;2022-08-01T13:59:44;16.08;;;8.63;;
68140;SDS011;54941;52.220;104.306;2022-08-01T14:02:10;15.63;;;8.98;;
68140;SDS011;54941;52.220;104.306;2022-08-01T14:04:36;13.40;;;8.55;;
68140;SDS011;54941;52.220;104.306;2022-08-01T14:07:03;14.57;;;8.85;;
68140;SDS011;54941;52.220;104.306;2022-08-01T14:09:29;12.73;;;8.88;;
68140;SDS011;54941;52.220;104.306;2022-08-01T14:11:55;14.70;;;9.73;;
68140;SDS011;54941;52.220;104.306;2022-08-01T14:14:21;13.05;;;9.07;;
68140;SDS011;54941;52.220;104.306;2022-08-01T14:16:47;12.75;;;7.93;;
68140;SDS011;54941;52.220;104.306;2022-08-01T14:19:16;13.00;;;8.38;;
68140;SDS011;54941;52.220;104.306;2022-08-01T14:21:42;12.50;;;8.23;;
68140;SDS011;54941;52.220;104.306;2022-08-01T14:24:08;11.60;;;7.90;;
68140;SDS011;54941;52.220;104.306;2022-08-01T14:26:34;14.10;;;10.45;;
68140;SDS011;54941;52.220;104.306;2022-08-01T14:29:01;14.38;;;8.27;;
68140;SDS011;54941;52.220;104.306;2022-08-01T14:31:27;13.52;;;9.05;;
68140;SDS011;54941;52.220;104.306;2022-08-01T14:33:53;18.77;;;9.57;;
68140;SDS011;54941;52.220;104.306;2022-08-01T14:36:19;16.55;;;9.75;;
68140;SDS011;54941;52.220;104.306;2022-08-01T14:38:45;13.68;;;9.48;;
68140;SDS011;54941;52.220;104.306;2022-08-01T14:41:11;12.23;;;9.10;;
68140;SDS011;54941;52.220;104.306;2022-08-01T14:43:38;13.27;;;9.43;;
68140;SDS011;54941;52.220;104.306;2022-08-01T14:46:04;12.90;;;8.43;;
68140;SDS011;54941;52.220;104.306;2022-08-01T14:48:31;15.55;;;10.20;;
68140;SDS011;54941;52.220;104.306;2022-08-01T14:50:57;14.60;;;10.05;;
68140;SDS011;54941;52.220;104.306;2022-08-01T14:53:24;14.45;;;9.77;;
68140;SDS011;54941;52.220;104.306;2022-08-01T14:55:50;13.75;;;9.50;;
68140;SDS011;54941;52.220;104.306;2022-08-01T14:58:16;13.45;;;9.38;;
68140;SDS011;54941;52.220;104.306;2022-08-01T15:00:42;17.65;;;10.35;;
68140;SDS011;54941;52.220;104.306;2022-08-01T15:03:08;14.55;;;9.15;;
68140;SDS011;54941;52.220;104.306;2022-08-01T15:05:34;15.85;;;9.43;;
68140;SDS011;54941;52.220;104.306;2022-08-01T15:08:00;13.68;;;10.45;;
68140;SDS011;54941;52.220;104.306;2022-08-01T15:10:27;14.65;;;9.98;;
68140;SDS011;54941;52.220;104.306;2022-08-01T15:12:54;13.55;;;8.77;;
68140;SDS011;54941;52.220;104.306;2022-08-01T15:15:20;16.00;;;8.45;;
68140;SDS011;54941;52.220;104.306;2022-08-01T15:17:46;16.45;;;10.00;;